sensor_id;sensor_type;location;lat;lon;timestamp;pressure;altitude;pressure_sealevel;temperature;humidity
76611;BME280;65503;48.534;9.062;2023-09-19T00:00:35;96672.22;;;17.96;74.61
76611;BME280;65503;48.534;9.062;2023-09-19T00:03:02;96682.13;;;17.91;74.74
76611;BME280;65503;48.534;9.062;2023-09-19T00:05:33;96676.59;;;17.87;74.62
76611;BME280;65503;48.534;9.062;2023-09-19T00:08:01;96685.53;;;17.96;74.59
76611;BME280;65503;48.534;9.062;2023-09-19T00:10:32;96685.66;;;18.10;74.02
76611;BME280;65503;48.534;9.062;2023-09-19T00:13:02;96682.69;;;18.11;73.81
76611;BME280;65503;48.534;9.062;2023-09-19T00:15:39;96686.16;;;18.12;74.06
76611;BME280;65503;48.534;9.062;2023-09-19T00:18:06;96688.72;;;17.98;74.39
76611;BME280;65503;48.534;9.062;2023-09-19T00:20:35;96678.94;;;18.12;73.95
76611;BME280;65503;48.534;9.062;2023-09-19T00:23:02;96680.41;;;18.00;74.29
76611;BME280;65503;48.534;9.062;2023-09-19T00:25:30;96682.25;;;18.04;74.13
76611;BME280;65503;48.534;9.062;2023-09-19T00:27:59;96694.53;;;18.00;73.85
76611;BME280;65503;48.534;9.062;2023-09-19T00:30:25;96687.00;;;18.07;73.66
76611;BME280;65503;48.534;9.062;2023-09-19T00:32:52;96692.91;;;18.04;73.09
76611;BME280;65503;48.534;9.062;2023-09-19T00:35:19;96686.00;;;18.03;73.10
76611;BME280;65503;48.534;9.062;2023-09-19T00:37:45;96680.94;;;18.02;73.50
76611;BME280;65503;48.534;9.062;2023-09-19T00:40:12;96680.66;;;18.03;72.93
76611;BME280;65503;48.534;9.062;2023-09-19T00:42:39;96682.31;;;17.99;72.35
76611;BME280;65503;48.534;9.062;2023-09-19T00:45:08;96683.38;;;17.98;72.57
76611;BME280;65503;48.534;9.062;2023-09-19T00:47:39;96684.00;;;17.90;72.70
76611;BME280;65503;48.534;9.062;2023-09-19T00:50:08;96685.47;;;18.01;72.42
76611;BME280;65503;48.534;9.062;2023-09-19T00:52:35;96679.53;;;18.09;71.88
76611;BME280;65503;48.534;9.062;2023-09-19T00:55:06;96680.03;;;18.11;72.04
76611;BME280;65503;48.534;9.062;2023-09-19T00:57:34;96684.06;;;18.09;72.13
76611;BME280;65503;48.534;9.062;2023-09-19T01:00:02;96682.25;;;18.04;72.41
76611;BME280;65503;48.534;9.062;2023-09-19T01:02:33;96684.47;;;17.97;72.25
76611;BME280;65503;48.534;9.062;2023-09-19T01:05:00;96680.66;;;18.03;72.14
76611;BME280;65503;48.534;9.062;2023-09-19T01:07:31;96684.88;;;18.09;72.27
76611;BME280;65503;48.534;9.062;2023-09-19T01:09:58;96683.16;;;18.18;71.72
76611;BME280;65503;48.534;9.062;2023-09-19T01:12:34;96679.41;;;18.20;71.51
76611;BME280;65503;48.534;9.062;2023-09-19T01:15:18;96684.75;;;18.20;71.61
76611;BME280;65503;48.534;9.062;2023-09-19T01:23:35;96686.44;;;18.10;72.05
76611;BME280;65503;48.534;9.062;2023-09-19T01:31:21;96688.47;;;18.18;71.72
76611;BME280;65503;48.534;9.062;2023-09-19T01:34:00;96691.19;;;18.13;71.81
76611;BME280;65503;48.534;9.062;2023-09-19T01:36:29;96689.47;;;18.23;71.73
76611;BME280;65503;48.534;9.062;2023-09-19T01:38:57;96701.19;;;18.27;71.29
76611;BME280;65503;48.534;9.062;2023-09-19T01:41:59;96701.72;;;18.24;71.43
76611;BME280;65503;48.534;9.062;2023-09-19T01:44:47;96711.84;;;18.27;71.29
76611;BME280;65503;48.534;9.062;2023-09-19T01:47:33;96715.63;;;18.21;71.46
76611;BME280;65503;48.534;9.062;2023-09-19T01:52:38;96719.38;;;18.20;71.69
76611;BME280;65503;48.534;9.062;2023-09-19T01:55:09;96720.22;;;18.15;71.52
76611;BME280;65503;48.534;9.062;2023-09-19T01:57:42;96719.88;;;17.98;72.03
76611;BME280;65503;48.534;9.062;2023-09-19T02:00:13;96723.28;;;18.03;72.10
76611;BME280;65503;48.534;9.062;2023-09-19T02:02:44;96728.72;;;17.93;72.71
76611;BME280;65503;48.534;9.062;2023-09-19T02:05:11;96723.44;;;17.88;72.73
76611;BME280;65503;48.534;9.062;2023-09-19T02:07:38;96733.00;;;17.89;72.70
76611;BME280;65503;48.534;9.062;2023-09-19T02:10:07;96729.84;;;17.87;72.62
76611;BME280;65503;48.534;9.062;2023-09-19T02:12:33;96730.38;;;17.84;72.52
76611;BME280;65503;48.534;9.062;2023-09-19T02:15:02;96740.50;;;17.87;72.38
76611;BME280;65503;48.534;9.062;2023-09-19T02:17:29;96741.56;;;17.86;72.44
76611;BME280;65503;48.534;9.062;2023-09-19T02:19:57;96743.19;;;17.82;72.74
76611;BME280;65503;48.534;9.062;2023-09-19T02:22:27;96738.41;;;17.79;72.55
76611;BME280;65503;48.534;9.062;2023-09-19T02:24:54;96740.00;;;17.80;72.75
76611;BME280;65503;48.534;9.062;2023-09-19T02:27:20;96733.91;;;17.80;72.35
76611;BME280;65503;48.534;9.062;2023-09-19T02:29:47;96741.94;;;17.74;72.84
76611;BME280;65503;48.534;9.062;2023-09-19T02:32:15;96729.97;;;17.72;73.07
76611;BME280;65503;48.534;9.062;2023-09-19T02:34:44;96739.06;;;17.66;73.27
76611;BME280;65503;48.534;9.062;2023-09-19T02:37:11;96736.72;;;17.59;73.65
76611;BME280;65503;48.534;9.062;2023-09-19T02:39:39;96734.31;;;17.63;73.71
76611;BME280;65503;48.534;9.062;2023-09-19T02:42:06;96741.22;;;17.64;73.53
76611;BME280;65503;48.534;9.062;2023-09-19T02:44:33;96743.31;;;17.67;73.41
76611;BME280;65503;48.534;9.062;2023-09-19T02:47:00;96745.19;;;17.66;73.51
76611;BME280;65503;48.534;9.062;2023-09-19T02:49:26;96740.13;;;17.70;73.07
76611;BME280;65503;48.534;9.062;2023-09-19T02:51:53;96742.47;;;17.71;72.97
76611;BME280;65503;48.534;9.062;2023-09-19T02:54:19;96749.69;;;17.71;73.25
76611;BME280;65503;48.534;9.062;2023-09-19T02:56:46;96751.22;;;17.77;72.54
76611;BME280;65503;48.534;9.062;2023-09-19T02:59:13;96749.69;;;17.71;72.85
76611;BME280;65503;48.534;9.062;2023-09-19T03:01:42;96755.41;;;17.83;72.89
76611;BME280;65503;48.534;9.062;2023-09-19T03:04:09;96760.09;;;17.96;72.80
76611;BME280;65503;48.534;9.062;2023-09-19T03:06:37;96763.75;;;18.00;72.42
76611;BME280;65503;48.534;9.062;2023-09-19T03:09:05;96765.31;;;18.06;72.33
76611;BME280;65503;48.534;9.062;2023-09-19T03:11:39;96753.41;;;18.23;72.33
76611;BME280;65503;48.534;9.062;2023-09-19T03:14:06;96761.72;;;18.21;71.95
76611;BME280;65503;48.534;9.062;2023-09-19T03:16:33;96764.06;;;18.23;71.59
76611;BME280;65503;48.534;9.062;2023-09-19T03:18:59;96773.59;;;18.29;71.83
76611;BME280;65503;48.534;9.062;2023-09-19T03:21:26;96769.31;;;18.33;71.79
76611;BME280;65503;48.534;9.062;2023-09-19T03:23:52;96771.91;;;18.38;71.58
76611;BME280;65503;48.534;9.062;2023-09-19T03:26:19;96780.69;;;18.38;71.59
76611;BME280;65503;48.534;9.062;2023-09-19T03:28:45;96775.66;;;18.37;71.90
76611;BME280;65503;48.534;9.062;2023-09-19T03:31:13;96789.03;;;18.32;72.19
76611;BME280;65503;48.534;9.062;2023-09-19T03:33:40;96784.72;;;18.36;71.86
76611;BME280;65503;48.534;9.062;2023-09-19T03:36:07;96780.50;;;18.30;72.32
76611;BME280;65503;48.534;9.062;2023-09-19T03:38:33;96779.84;;;18.19;72.83
76611;BME280;65503;48.534;9.062;2023-09-19T03:41:01;96785.59;;;18.02;73.55
76611;BME280;65503;48.534;9.062;2023-09-19T03:43:28;96777.19;;;17.90;74.33
76611;BME280;65503;48.534;9.062;2023-09-19T03:45:55;96780.53;;;17.72;75.26
76611;BME280;65503;48.534;9.062;2023-09-19T03:48:21;96783.16;;;17.77;75.00
76611;BME280;65503;48.534;9.062;2023-09-19T03:50:49;96794.41;;;17.69;75.31
76611;BME280;65503;48.534;9.062;2023-09-19T03:53:16;96792.34;;;17.56;75.56
76611;BME280;65503;48.534;9.062;2023-09-19T03:55:44;96786.00;;;17.52;75.91
76611;BME280;65503;48.534;9.062;2023-09-19T03:58:12;96791.28;;;17.57;75.88
76611;BME280;65503;48.534;9.062;2023-09-19T04:00:39;96788.63;;;17.57;76.19
76611;BME280;65503;48.534;9.062;2023-09-19T04:03:06;96790.72;;;17.65;76.36
76611;BME280;65503;48.534;9.062;2023-09-19T04:05:33;96774.78;;;17.55;76.25
76611;BME280;65503;48.534;9.062;2023-09-19T04:08:00;96771.72;;;17.43;76.86
76611;BME280;65503;48.534;9.062;2023-09-19T04:10:26;96769.59;;;17.40;76.72
76611;BME280;65503;48.534;9.062;2023-09-19T04:12:54;96771.78;;;17.32;77.28
76611;BME280;65503;48.534;9.062;2023-09-19T04:15:21;96766.50;;;17.27;77.65
76611;BME280;65503;48.534;9.062;2023-09-19T04:17:53;96767.00;;;17.29;77.15
76611;BME280;65503;48.534;9.062;2023-09-19T04:20:19;96775.53;;;17.26;77.36
76611;BME280;65503;48.534;9.062;2023-09-19T04:22:46;96770.25;;;17.21;77.62
76611;BME280;65503;48.534;9.062;2023-09-19T04:25:13;96775.34;;;17.18;77.79
76611;BME280;65503;48.534;9.062;2023-09-19T04:27:39;96773.97;;;17.20;77.17
76611;BME280;65503;48.534;9.062;2023-09-19T04:30:08;96771.09;;;17.17;77.73
76611;BME280;65503;48.534;9.062;2023-09-19T04:32:38;96780.34;;;17.24;77.19
76611;BME280;65503;48.534;9.062;2023-09-19T04:35:09;96777.13;;;17.27;76.43
76611;BME280;65503;48.534;9.062;2023-09-19T04:37:38;96778.19;;;17.26;76.25
76611;BME280;65503;48.534;9.062;2023-09-19T04:40:07;96782.47;;;17.22;76.24
76611;BME280;65503;48.534;9.062;2023-09-19T04:42:40;96780.88;;;17.21;76.61
76611;BME280;65503;48.534;9.062;2023-09-19T04:45:07;96781.41;;;17.23;76.47
76611;BME280;65503;48.534;9.062;2023-09-19T04:47:38;96776.91;;;17.24;76.89
76611;BME280;65503;48.534;9.062;2023-09-19T04:50:09;96778.16;;;17.31;76.48
76611;BME280;65503;48.534;9.062;2023-09-19T04:52:43;96782.91;;;17.40;76.45
76611;BME280;65503;48.534;9.062;2023-09-19T04:55:12;96788.75;;;17.42;76.33
76611;BME280;65503;48.534;9.062;2023-09-19T04:57:44;96797.75;;;17.46;75.95
76611;BME280;65503;48.534;9.062;2023-09-19T05:00:14;96801.94;;;17.57;75.70
76611;BME280;65503;48.534;9.062;2023-09-19T05:02:41;96799.25;;;17.57;75.79
76611;BME280;65503;48.534;9.062;2023-09-19T05:05:09;96804.59;;;17.57;75.95
76611;BME280;65503;48.534;9.062;2023-09-19T05:07:42;96805.09;;;17.64;75.68
76611;BME280;65503;48.534;9.062;2023-09-19T05:10:09;96800.81;;;17.68;75.76
76611;BME280;65503;48.534;9.062;2023-09-19T05:12:36;96798.66;;;17.70;76.00
76611;BME280;65503;48.534;9.062;2023-09-19T05:15:03;96802.31;;;17.79;76.00
76611;BME280;65503;48.534;9.062;2023-09-19T05:17:31;96802.78;;;17.86;75.70
76611;BME280;65503;48.534;9.062;2023-09-19T05:19:57;96808.13;;;17.86;75.72
76611;BME280;65503;48.534;9.062;2023-09-19T05:22:42;96806.75;;;17.89;75.47
76611;BME280;65503;48.534;9.062;2023-09-19T05:25:09;96821.94;;;17.88;75.57
76611;BME280;65503;48.534;9.062;2023-09-19T05:27:36;96819.84;;;17.85;75.37
76611;BME280;65503;48.534;9.062;2023-09-19T05:30:03;96819.78;;;17.90;74.87
76611;BME280;65503;48.534;9.062;2023-09-19T05:32:31;96821.84;;;17.98;74.72
76611;BME280;65503;48.534;9.062;2023-09-19T05:34:57;96822.94;;;17.97;74.77
76611;BME280;65503;48.534;9.062;2023-09-19T05:37:24;96825.50;;;18.07;73.94
76611;BME280;65503;48.534;9.062;2023-09-19T05:39:52;96833.56;;;17.97;73.96
76611;BME280;65503;48.534;9.062;2023-09-19T05:42:22;96829.84;;;17.98;73.74
76611;BME280;65503;48.534;9.062;2023-09-19T05:44:48;96840.41;;;18.08;73.59
76611;BME280;65503;48.534;9.062;2023-09-19T05:47:15;96831.38;;;18.04;73.27
76611;BME280;65503;48.534;9.062;2023-09-19T05:49:41;96848.16;;;18.05;73.20
76611;BME280;65503;48.534;9.062;2023-09-19T05:52:08;96848.38;;;18.08;73.00
76611;BME280;65503;48.534;9.062;2023-09-19T05:54:34;96857.94;;;18.14;73.05
76611;BME280;65503;48.534;9.062;2023-09-19T05:57:01;96860.53;;;18.20;73.12
76611;BME280;65503;48.534;9.062;2023-09-19T05:59:28;96863.91;;;18.30;72.88
76611;BME280;65503;48.534;9.062;2023-09-19T06:01:54;96863.63;;;18.32;71.97
76611;BME280;65503;48.534;9.062;2023-09-19T06:04:21;96862.84;;;18.31;72.18
76611;BME280;65503;48.534;9.062;2023-09-19T06:06:48;96870.50;;;18.38;72.43
76611;BME280;65503;48.534;9.062;2023-09-19T06:09:15;96871.56;;;18.37;72.06
76611;BME280;65503;48.534;9.062;2023-09-19T06:11:42;96873.13;;;18.43;71.14
76611;BME280;65503;48.534;9.062;2023-09-19T06:14:08;96879.72;;;18.22;72.44
76611;BME280;65503;48.534;9.062;2023-09-19T06:16:36;96891.06;;;18.32;72.23
76611;BME280;65503;48.534;9.062;2023-09-19T06:19:04;96892.50;;;18.20;72.92
76611;BME280;65503;48.534;9.062;2023-09-19T06:21:36;96897.09;;;18.14;73.52
76611;BME280;65503;48.534;9.062;2023-09-19T06:24:02;96899.03;;;18.03;73.67
76611;BME280;65503;48.534;9.062;2023-09-19T06:26:29;96896.84;;;18.10;74.10
76611;BME280;65503;48.534;9.062;2023-09-19T06:28:57;96899.91;;;18.28;73.20
76611;BME280;65503;48.534;9.062;2023-09-19T06:31:23;96900.44;;;18.25;72.93
76611;BME280;65503;48.534;9.062;2023-09-19T06:33:53;96912.50;;;18.46;72.81
76611;BME280;65503;48.534;9.062;2023-09-19T06:36:19;96913.47;;;18.60;72.32
76611;BME280;65503;48.534;9.062;2023-09-19T06:38:46;96911.78;;;18.69;71.50
76611;BME280;65503;48.534;9.062;2023-09-19T06:41:13;96913.84;;;18.77;71.58
76611;BME280;65503;48.534;9.062;2023-09-19T06:43:42;96921.53;;;19.03;71.04
76611;BME280;65503;48.534;9.062;2023-09-19T06:46:09;96919.84;;;19.35;71.18
76611;BME280;65503;48.534;9.062;2023-09-19T06:48:36;96924.84;;;19.42;70.03
76611;BME280;65503;48.534;9.062;2023-09-19T06:51:02;96923.78;;;19.62;68.91
76611;BME280;65503;48.534;9.062;2023-09-19T06:53:32;96920.25;;;20.04;69.37
76611;BME280;65503;48.534;9.062;2023-09-19T06:55:59;96928.53;;;19.84;68.59
76611;BME280;65503;48.534;9.062;2023-09-19T06:58:25;96929.09;;;19.99;67.74
76611;BME280;65503;48.534;9.062;2023-09-19T07:00:52;96931.78;;;19.99;67.18
76611;BME280;65503;48.534;9.062;2023-09-19T07:03:20;96933.09;;;20.02;67.87
76611;BME280;65503;48.534;9.062;2023-09-19T07:05:48;96924.69;;;20.27;67.72
76611;BME280;65503;48.534;9.062;2023-09-19T07:08:14;96933.28;;;20.56;67.09
76611;BME280;65503;48.534;9.062;2023-09-19T07:10:42;96927.69;;;20.39;66.13
76611;BME280;65503;48.534;9.062;2023-09-19T07:13:15;96928.50;;;20.40;66.49
76611;BME280;65503;48.534;9.062;2023-09-19T07:15:44;96933.09;;;20.53;65.31
76611;BME280;65503;48.534;9.062;2023-09-19T07:18:14;96929.34;;;20.68;64.51
76611;BME280;65503;48.534;9.062;2023-09-19T07:20:44;96933.94;;;20.81;65.12
76611;BME280;65503;48.534;9.062;2023-09-19T07:23:20;96949.72;;;20.96;64.12
76611;BME280;65503;48.534;9.062;2023-09-19T07:25:48;96945.03;;;20.88;63.57
76611;BME280;65503;48.534;9.062;2023-09-19T07:28:15;96947.03;;;20.96;64.57
76611;BME280;65503;48.534;9.062;2023-09-19T07:30:42;96950.19;;;20.98;63.24
76611;BME280;65503;48.534;9.062;2023-09-19T07:33:08;96956.06;;;21.00;63.43
76611;BME280;65503;48.534;9.062;2023-09-19T07:35:38;96959.63;;;21.09;63.13
76611;BME280;65503;48.534;9.062;2023-09-19T07:38:08;96957.38;;;21.16;62.96
76611;BME280;65503;48.534;9.062;2023-09-19T07:40:38;96966.66;;;21.60;62.22
76611;BME280;65503;48.534;9.062;2023-09-19T07:43:04;96963.00;;;21.69;61.02
76611;BME280;65503;48.534;9.062;2023-09-19T07:45:31;96969.41;;;21.82;60.67
76611;BME280;65503;48.534;9.062;2023-09-19T07:47:58;96970.09;;;21.88;60.63
76611;BME280;65503;48.534;9.062;2023-09-19T07:50:31;96974.97;;;20.90;62.00
76611;BME280;65503;48.534;9.062;2023-09-19T07:52:59;96974.75;;;20.86;63.14
76611;BME280;65503;48.534;9.062;2023-09-19T07:55:26;96975.50;;;20.59;62.37
76611;BME280;65503;48.534;9.062;2023-09-19T07:57:52;96972.13;;;20.68;62.85
76611;BME280;65503;48.534;9.062;2023-09-19T08:00:19;96977.47;;;20.68;62.11
76611;BME280;65503;48.534;9.062;2023-09-19T08:02:46;96980.56;;;20.61;62.39
76611;BME280;65503;48.534;9.062;2023-09-19T08:05:23;96978.00;;;20.37;62.04
76611;BME280;65503;48.534;9.062;2023-09-19T08:07:51;96991.13;;;20.52;61.63
76611;BME280;65503;48.534;9.062;2023-09-19T08:10:19;96985.56;;;20.49;61.42
76611;BME280;65503;48.534;9.062;2023-09-19T08:12:46;96992.13;;;20.89;60.48
76611;BME280;65503;48.534;9.062;2023-09-19T08:15:19;96993.28;;;21.29;58.22
76611;BME280;65503;48.534;9.062;2023-09-19T08:17:47;96999.31;;;21.62;57.16
76611;BME280;65503;48.534;9.062;2023-09-19T08:20:14;96997.97;;;22.58;56.62
76611;BME280;65503;48.534;9.062;2023-09-19T08:22:49;97002.16;;;22.95;53.57
76611;BME280;65503;48.534;9.062;2023-09-19T08:25:20;97003.50;;;23.06;53.29
76611;BME280;65503;48.534;9.062;2023-09-19T08:27:47;97016.84;;;22.89;52.98
76611;BME280;65503;48.534;9.062;2023-09-19T08:30:16;97018.34;;;22.82;54.14
76611;BME280;65503;48.534;9.062;2023-09-19T08:32:44;97004.38;;;22.71;53.27
76611;BME280;65503;48.534;9.062;2023-09-19T08:35:13;97020.91;;;22.06;54.40
76611;BME280;65503;48.534;9.062;2023-09-19T08:37:42;97028.13;;;22.19;55.20
76611;BME280;65503;48.534;9.062;2023-09-19T08:40:09;97019.94;;;22.38;54.15
76611;BME280;65503;48.534;9.062;2023-09-19T08:42:52;97023.22;;;22.57;54.16
76611;BME280;65503;48.534;9.062;2023-09-19T08:45:21;97025.72;;;22.32;52.82
76611;BME280;65503;48.534;9.062;2023-09-19T08:48:19;97032.94;;;21.95;54.17
76611;BME280;65503;48.534;9.062;2023-09-19T08:53:21;97037.69;;;21.84;55.04
76611;BME280;65503;48.534;9.062;2023-09-19T08:55:53;97031.34;;;21.67;55.27
76611;BME280;65503;48.534;9.062;2023-09-19T08:58:26;97038.09;;;21.51;55.66
76611;BME280;65503;48.534;9.062;2023-09-19T09:00:57;97039.88;;;21.96;54.40
76611;BME280;65503;48.534;9.062;2023-09-19T09:03:25;97042.38;;;21.52;55.34
76611;BME280;65503;48.534;9.062;2023-09-19T09:05:52;97035.13;;;21.38;54.94
76611;BME280;65503;48.534;9.062;2023-09-19T09:08:20;97037.09;;;21.33;55.92
76611;BME280;65503;48.534;9.062;2023-09-19T09:10:48;97041.75;;;21.55;55.68
76611;BME280;65503;48.534;9.062;2023-09-19T09:13:16;97031.94;;;21.36;52.79
76611;BME280;65503;48.534;9.062;2023-09-19T09:15:43;97038.72;;;20.69;54.04
76611;BME280;65503;48.534;9.062;2023-09-19T09:18:11;97050.63;;;20.02;56.17
76611;BME280;65503;48.534;9.062;2023-09-19T09:20:38;97048.13;;;20.29;55.07
76611;BME280;65503;48.534;9.062;2023-09-19T09:23:04;97049.84;;;20.57;53.42
76611;BME280;65503;48.534;9.062;2023-09-19T09:25:52;97043.16;;;20.60;52.95
76611;BME280;65503;48.534;9.062;2023-09-19T09:28:30;97045.59;;;20.56;52.66
76611;BME280;65503;48.534;9.062;2023-09-19T09:30:59;97041.78;;;21.09;52.98
76611;BME280;65503;48.534;9.062;2023-09-19T09:33:25;97039.19;;;20.90;52.31
76611;BME280;65503;48.534;9.062;2023-09-19T09:35:58;97048.53;;;21.06;53.09
76611;BME280;65503;48.534;9.062;2023-09-19T09:38:30;97038.88;;;21.37;51.29
76611;BME280;65503;48.534;9.062;2023-09-19T09:41:10;97044.25;;;21.37;51.01
76611;BME280;65503;48.534;9.062;2023-09-19T09:43:38;97039.13;;;20.76;51.00
76611;BME280;65503;48.534;9.062;2023-09-19T09:46:14;97038.25;;;20.48;51.25
76611;BME280;65503;48.534;9.062;2023-09-19T09:49:03;97032.00;;;20.72;51.59
76611;BME280;65503;48.534;9.062;2023-09-19T09:51:50;97038.78;;;20.83;50.31
76611;BME280;65503;48.534;9.062;2023-09-19T09:55:00;97037.50;;;21.40;49.72
76611;BME280;65503;48.534;9.062;2023-09-19T09:57:32;97025.94;;;21.94;49.24
76611;BME280;65503;48.534;9.062;2023-09-19T10:00:00;97024.28;;;22.34;47.20
76611;BME280;65503;48.534;9.062;2023-09-19T10:02:39;97032.81;;;22.94;46.25
76611;BME280;65503;48.534;9.062;2023-09-19T10:05:18;97030.63;;;23.75;44.55
76611;BME280;65503;48.534;9.062;2023-09-19T10:07:55;97036.81;;;23.76;43.63
76611;BME280;65503;48.534;9.062;2023-09-19T10:10:34;97033.75;;;23.60;44.91
76611;BME280;65503;48.534;9.062;2023-09-19T10:13:25;97031.56;;;23.62;43.65
76611;BME280;65503;48.534;9.062;2023-09-19T10:15:56;97028.50;;;23.16;43.23
76611;BME280;65503;48.534;9.062;2023-09-19T10:18:26;97025.31;;;23.14;43.71
76611;BME280;65503;48.534;9.062;2023-09-19T10:20:56;97030.25;;;22.89;44.40
76611;BME280;65503;48.534;9.062;2023-09-19T10:23:24;97035.44;;;23.17;44.05
76611;BME280;65503;48.534;9.062;2023-09-19T10:25:52;97026.78;;;23.51;42.54
76611;BME280;65503;48.534;9.062;2023-09-19T10:28:19;97030.66;;;23.93;42.21
76611;BME280;65503;48.534;9.062;2023-09-19T10:30:51;97025.94;;;23.89;41.20
76611;BME280;65503;48.534;9.062;2023-09-19T10:33:20;97025.63;;;24.00;41.18
76611;BME280;65503;48.534;9.062;2023-09-19T10:35:49;97020.44;;;24.55;40.97
76611;BME280;65503;48.534;9.062;2023-09-19T10:38:24;97017.13;;;24.66;40.10
76611;BME280;65503;48.534;9.062;2023-09-19T10:40:53;97025.13;;;23.89;41.75
76611;BME280;65503;48.534;9.062;2023-09-19T10:43:21;97025.84;;;23.55;42.33
76611;BME280;65503;48.534;9.062;2023-09-19T10:45:53;97019.84;;;23.58;43.52
76611;BME280;65503;48.534;9.062;2023-09-19T10:48:21;97023.16;;;24.46;41.79
76611;BME280;65503;48.534;9.062;2023-09-19T10:51:06;97015.88;;;24.38;40.44
76611;BME280;65503;48.534;9.062;2023-09-19T10:53:43;97029.81;;;24.23;41.60
76611;BME280;65503;48.534;9.062;2023-09-19T10:56:17;97024.56;;;24.61;42.69
76611;BME280;65503;48.534;9.062;2023-09-19T10:58:45;97030.56;;;24.66;43.09
76611;BME280;65503;48.534;9.062;2023-09-19T11:01:12;97019.38;;;24.47;41.44
76611;BME280;65503;48.534;9.062;2023-09-19T11:03:41;97024.75;;;24.30;40.60
76611;BME280;65503;48.534;9.062;2023-09-19T11:06:13;97021.53;;;24.97;40.07
76611;BME280;65503;48.534;9.062;2023-09-19T11:08:57;97010.94;;;24.83;38.39
76611;BME280;65503;48.534;9.062;2023-09-19T11:30:36;96993.38;;;24.00;41.44
76611;BME280;65503;48.534;9.062;2023-09-19T11:46:27;96992.47;;;24.47;39.34
76611;BME280;65503;48.534;9.062;2023-09-19T11:48:54;97002.28;;;24.26;41.25
76611;BME280;65503;48.534;9.062;2023-09-19T11:51:39;96995.72;;;23.36;41.73
76611;BME280;65503;48.534;9.062;2023-09-19T11:54:10;96988.91;;;23.69;41.74
76611;BME280;65503;48.534;9.062;2023-09-19T11:56:48;96996.06;;;23.43;42.73
76611;BME280;65503;48.534;9.062;2023-09-19T11:59:24;96989.19;;;23.59;42.29
76611;BME280;65503;48.534;9.062;2023-09-19T12:01:56;96990.97;;;23.98;41.65
76611;BME280;65503;48.534;9.062;2023-09-19T12:07:10;96982.16;;;24.41;39.66
76611;BME280;65503;48.534;9.062;2023-09-19T12:10:04;96979.47;;;24.32;39.88
76611;BME280;65503;48.534;9.062;2023-09-19T12:12:32;96973.72;;;24.77;38.80
76611;BME280;65503;48.534;9.062;2023-09-19T12:15:01;96973.72;;;24.77;38.86
76611;BME280;65503;48.534;9.062;2023-09-19T12:17:36;96965.88;;;24.54;39.38
76611;BME280;65503;48.534;9.062;2023-09-19T12:20:03;96968.06;;;24.52;38.78
76611;BME280;65503;48.534;9.062;2023-09-19T12:22:43;96967.09;;;24.65;39.74
76611;BME280;65503;48.534;9.062;2023-09-19T12:25:10;96959.22;;;24.60;38.90
76611;BME280;65503;48.534;9.062;2023-09-19T12:27:47;96956.81;;;24.50;38.33
76611;BME280;65503;48.534;9.062;2023-09-19T12:30:14;96961.09;;;24.00;40.85
76611;BME280;65503;48.534;9.062;2023-09-19T12:32:53;96946.16;;;24.80;40.18
76611;BME280;65503;48.534;9.062;2023-09-19T12:35:31;96948.38;;;24.78;39.68
76611;BME280;65503;48.534;9.062;2023-09-19T12:38:01;96944.22;;;25.06;39.53
76611;BME280;65503;48.534;9.062;2023-09-19T12:40:30;96943.63;;;24.92;39.44
76611;BME280;65503;48.534;9.062;2023-09-19T12:43:00;96934.84;;;24.48;39.42
76611;BME280;65503;48.534;9.062;2023-09-19T12:45:30;96948.88;;;24.71;39.40
76611;BME280;65503;48.534;9.062;2023-09-19T12:48:25;96943.19;;;25.19;37.92
76611;BME280;65503;48.534;9.062;2023-09-19T12:51:09;96950.03;;;24.01;39.70
76611;BME280;65503;48.534;9.062;2023-09-19T12:53:40;96943.69;;;24.06;39.93
76611;BME280;65503;48.534;9.062;2023-09-19T12:56:10;96938.03;;;24.42;39.37
76611;BME280;65503;48.534;9.062;2023-09-19T12:58:55;96937.06;;;24.12;40.95
76611;BME280;65503;48.534;9.062;2023-09-19T13:01:23;96937.38;;;24.53;40.92
76611;BME280;65503;48.534;9.062;2023-09-19T13:04:16;96938.72;;;24.94;39.85
76611;BME280;65503;48.534;9.062;2023-09-19T13:06:48;96937.56;;;24.95;39.12
76611;BME280;65503;48.534;9.062;2023-09-19T13:09:17;96939.63;;;25.36;38.87
76611;BME280;65503;48.534;9.062;2023-09-19T13:11:44;96942.56;;;25.14;39.07
76611;BME280;65503;48.534;9.062;2023-09-19T13:19:47;96935.38;;;24.80;39.28
76611;BME280;65503;48.534;9.062;2023-09-19T13:22:47;96925.03;;;24.35;39.04
76611;BME280;65503;48.534;9.062;2023-09-19T13:25:21;96926.28;;;24.46;39.32
76611;BME280;65503;48.534;9.062;2023-09-19T13:27:56;96929.16;;;24.41;40.02
76611;BME280;65503;48.534;9.062;2023-09-19T13:30:24;96925.03;;;23.66;41.29
76611;BME280;65503;48.534;9.062;2023-09-19T13:33:03;96929.78;;;24.21;41.15
76611;BME280;65503;48.534;9.062;2023-09-19T13:35:30;96926.00;;;24.22;40.36
76611;BME280;65503;48.534;9.062;2023-09-19T13:37:56;96924.13;;;24.31;40.71
76611;BME280;65503;48.534;9.062;2023-09-19T13:40:23;96918.88;;;24.35;41.09
76611;BME280;65503;48.534;9.062;2023-09-19T13:42:50;96914.88;;;24.49;40.82
76611;BME280;65503;48.534;9.062;2023-09-19T13:45:20;96917.03;;;24.82;40.08
76611;BME280;65503;48.534;9.062;2023-09-19T13:47:48;96928.81;;;24.51;40.28
76611;BME280;65503;48.534;9.062;2023-09-19T13:50:15;96917.94;;;24.22;40.23
76611;BME280;65503;48.534;9.062;2023-09-19T13:52:43;96922.84;;;24.03;40.88
76611;BME280;65503;48.534;9.062;2023-09-19T13:55:09;96907.97;;;24.14;40.85
76611;BME280;65503;48.534;9.062;2023-09-19T13:57:36;96907.47;;;24.46;40.70
76611;BME280;65503;48.534;9.062;2023-09-19T14:00:04;96907.97;;;24.14;41.22
76611;BME280;65503;48.534;9.062;2023-09-19T14:02:31;96906.38;;;24.30;40.54
76611;BME280;65503;48.534;9.062;2023-09-19T14:04:59;96907.47;;;23.77;41.77
76611;BME280;65503;48.534;9.062;2023-09-19T14:07:25;96903.69;;;23.61;42.22
76611;BME280;65503;48.534;9.062;2023-09-19T14:09:52;96907.97;;;23.97;42.14
76611;BME280;65503;48.534;9.062;2023-09-19T14:12:19;96895.94;;;23.85;41.50